sensor_id;sensor_type;location;lat;lon;timestamp;P1;durP1;ratioP1;P2;durP2;ratioP2
31308;SDS011;17936;52.446;10.840;2023-03-24T00:02:12;3.85;;;1.60;;
31308;SDS011;17936;52.446;10.840;2023-03-24T00:04:38;2.55;;;1.50;;
31308;SDS011;17936;52.446;10.840;2023-03-24T00:07:06;2.22;;;1.35;;
31308;SDS011;17936;52.446;10.840;2023-03-24T00:09:33;1.90;;;1.40;;
31308;SDS011;17936;52.446;10.840;2023-03-24T00:11:58;2.72;;;1.80;;
31308;SDS011;17936;52.446;10.840;2023-03-24T00:14:24;2.53;;;1.17;;
31308;SDS011;17936;52.446;10.840;2023-03-24T00:16:50;2.95;;;1.40;;
31308;SDS011;17936;52.446;10.840;2023-03-24T00:19:16;4.07;;;1.73;;
31308;SDS011;17936;52.446;10.840;2023-03-24T00:21:43;5.68;;;1.65;;
31308;SDS011;17936;52.446;10.840;2023-03-24T00:24:09;2.15;;;1.65;;
31308;SDS011;17936;52.446;10.840;2023-03-24T00:26:37;3.92;;;1.35;;
31308;SDS011;17936;52.446;10.840;2023-03-24T00:29:04;3.28;;;1.38;;
31308;SDS011;17936;52.446;10.840;2023-03-24T00:31:31;3.58;;;1.45;;
31308;SDS011;17936;52.446;10.840;2023-03-24T00:33:57;2.47;;;1.30;;
31308;SDS011;17936;52.446;10.840;2023-03-24T00:36:23;3.58;;;1.33;;
31308;SDS011;17936;52.446;10.840;2023-03-24T00:38:50;2.10;;;1.10;;
31308;SDS011;17936;52.446;10.840;2023-03-24T00:41:17;3.60;;;1.40;;
31308;SDS011;17936;52.446;10.840;2023-03-24T00:43:48;4.13;;;1.35;;
31308;SDS011;17936;52.446;10.840;2023-03-24T00:46:15;5.63;;;1.50;;
31308;SDS011;17936;52.446;10.840;2023-03-24T00:49:00;3.28;;;1.40;;
31308;SDS011;17936;52.446;10.840;2023-03-24T00:51:36;3.45;;;1.38;;
31308;SDS011;17936;52.446;10.840;2023-03-24T00:54:03;8.07;;;2.00;;
31308;SDS011;17936;52.446;10.840;2023-03-24T00:56:30;4.15;;;1.45;;
31308;SDS011;17936;52.446;10.840;2023-03-24T00:58:57;4.22;;;1.88;;
31308;SDS011;17936;52.446;10.840;2023-03-24T01:01:26;3.08;;;1.70;;
31308;SDS011;17936;52.446;10.840;2023-03-24T01:03:57;5.55;;;1.60;;
31308;SDS011;17936;52.446;10.840;2023-03-24T01:06:24;3.17;;;1.60;;
31308;SDS011;17936;52.446;10.840;2023-03-24T01:08:50;3.83;;;1.13;;
31308;SDS011;17936;52.446;10.840;2023-03-24T01:11:18;4.68;;;1.20;;
31308;SDS011;17936;52.446;10.840;2023-03-24T01:13:46;3.35;;;1.40;;
31308;SDS011;17936;52.446;10.840;2023-03-24T01:16:12;2.40;;;1.27;;
31308;SDS011;17936;52.446;10.840;2023-03-24T01:18:38;3.08;;;1.38;;
31308;SDS011;17936;52.446;10.840;2023-03-24T01:21:05;7.40;;;1.45;;
31308;SDS011;17936;52.446;10.840;2023-03-24T01:23:31;3.25;;;1.45;;
31308;SDS011;17936;52.446;10.840;2023-03-24T01:26:00;2.00;;;1.30;;
31308;SDS011;17936;52.446;10.840;2023-03-24T01:28:29;4.10;;;1.40;;
31308;SDS011;17936;52.446;10.840;2023-03-24T01:30:55;3.40;;;1.75;;
31308;SDS011;17936;52.446;10.840;2023-03-24T01:33:20;2.47;;;1.20;;
31308;SDS011;17936;52.446;10.840;2023-03-24T01:35:46;3.42;;;1.30;;
31308;SDS011;17936;52.446;10.840;2023-03-24T01:38:13;4.15;;;1.58;;
31308;SDS011;17936;52.446;10.840;2023-03-24T01:40:40;7.93;;;1.90;;
31308;SDS011;17936;52.446;10.840;2023-03-24T01:43:18;1.77;;;1.23;;
31308;SDS011;17936;52.446;10.840;2023-03-24T01:51:21;3.22;;;1.52;;
31308;SDS011;17936;52.446;10.840;2023-03-24T01:54:09;5.80;;;1.70;;
31308;SDS011;17936;52.446;10.840;2023-03-24T01:56:41;8.23;;;1.77;;
31308;SDS011;17936;52.446;10.840;2023-03-24T01:59:13;4.78;;;1.45;;
31308;SDS011;17936;52.446;10.840;2023-03-24T02:01:42;4.47;;;1.88;;
31308;SDS011;17936;52.446;10.840;2023-03-24T02:04:09;6.03;;;1.98;;
31308;SDS011;17936;52.446;10.840;2023-03-24T02:06:35;4.13;;;1.98;;
31308;SDS011;17936;52.446;10.840;2023-03-24T02:09:05;5.22;;;2.00;;
31308;SDS011;17936;52.446;10.840;2023-03-24T02:11:32;5.07;;;1.98;;
31308;SDS011;17936;52.446;10.840;2023-03-24T02:13:59;3.28;;;1.75;;
31308;SDS011;17936;52.446;10.840;2023-03-24T02:16:32;8.43;;;1.75;;
31308;SDS011;17936;52.446;10.840;2023-03-24T02:31:01;2.92;;;1.98;;
31308;SDS011;17936;52.446;10.840;2023-03-24T02:33:37;5.82;;;2.05;;
31308;SDS011;17936;52.446;10.840;2023-03-24T02:36:23;4.72;;;1.75;;
31308;SDS011;17936;52.446;10.840;2023-03-24T02:39:14;6.82;;;2.08;;
31308;SDS011;17936;52.446;10.840;2023-03-24T02:41:51;4.28;;;2.30;;
31308;SDS011;17936;52.446;10.840;2023-03-24T02:47:02;5.15;;;2.58;;
31308;SDS011;17936;52.446;10.840;2023-03-24T02:54:46;3.08;;;2.08;;
31308;SDS011;17936;52.446;10.840;2023-03-24T02:57:50;4.72;;;2.13;;
31308;SDS011;17936;52.446;10.840;2023-03-24T03:03:09;6.88;;;2.50;;
31308;SDS011;17936;52.446;10.840;2023-03-24T03:05:43;5.28;;;2.13;;
31308;SDS011;17936;52.446;10.840;2023-03-24T03:08:15;8.35;;;2.55;;
31308;SDS011;17936;52.446;10.840;2023-03-24T03:10:45;5.55;;;1.92;;
31308;SDS011;17936;52.446;10.840;2023-03-24T03:13:14;5.68;;;2.83;;
31308;SDS011;17936;52.446;10.840;2023-03-24T03:15:47;7.95;;;2.50;;
31308;SDS011;17936;52.446;10.840;2023-03-24T03:20:47;4.18;;;2.53;;
31308;SDS011;17936;52.446;10.840;2023-03-24T03:23:39;5.85;;;2.60;;
31308;SDS011;17936;52.446;10.840;2023-03-24T03:26:07;3.80;;;2.15;;
31308;SDS011;17936;52.446;10.840;2023-03-24T03:28:38;4.28;;;2.40;;
31308;SDS011;17936;52.446;10.840;2023-03-24T03:31:08;4.22;;;2.30;;
31308;SDS011;17936;52.446;10.840;2023-03-24T03:33:43;7.07;;;2.70;;
31308;SDS011;17936;52.446;10.840;2023-03-24T03:36:14;4.80;;;2.35;;
31308;SDS011;17936;52.446;10.840;2023-03-24T03:41:17;5.82;;;2.08;;
31308;SDS011;17936;52.446;10.840;2023-03-24T03:43:44;4.55;;;2.30;;
31308;SDS011;17936;52.446;10.840;2023-03-24T03:46:11;4.03;;;2.20;;
31308;SDS011;17936;52.446;10.840;2023-03-24T03:48:37;3.50;;;2.40;;
31308;SDS011;17936;52.446;10.840;2023-03-24T03:51:04;3.92;;;2.25;;
31308;SDS011;17936;52.446;10.840;2023-03-24T03:53:33;6.35;;;2.40;;
31308;SDS011;17936;52.446;10.840;2023-03-24T03:56:23;4.53;;;2.30;;
31308;SDS011;17936;52.446;10.840;2023-03-24T03:58:50;6.85;;;2.22;;
31308;SDS011;17936;52.446;10.840;2023-03-24T04:01:18;4.53;;;2.28;;
31308;SDS011;17936;52.446;10.840;2023-03-24T04:03:51;5.22;;;2.67;;
31308;SDS011;17936;52.446;10.840;2023-03-24T04:06:32;3.50;;;2.20;;
31308;SDS011;17936;52.446;10.840;2023-03-24T04:09:15;4.75;;;2.50;;
31308;SDS011;17936;52.446;10.840;2023-03-24T04:18:03;4.53;;;2.20;;
31308;SDS011;17936;52.446;10.840;2023-03-24T04:21:01;4.40;;;1.73;;
31308;SDS011;17936;52.446;10.840;2023-03-24T04:23:44;3.63;;;1.90;;
31308;SDS011;17936;52.446;10.840;2023-03-24T04:26:39;2.85;;;1.80;;
31308;SDS011;17936;52.446;10.840;2023-03-24T04:29:19;6.65;;;1.90;;
31308;SDS011;17936;52.446;10.840;2023-03-24T04:32:19;3.28;;;1.70;;
31308;SDS011;17936;52.446;10.840;2023-03-24T04:34:47;3.60;;;1.83;;
31308;SDS011;17936;52.446;10.840;2023-03-24T04:37:28;4.57;;;1.92;;
31308;SDS011;17936;52.446;10.840;2023-03-24T04:40:02;2.33;;;1.70;;
31308;SDS011;17936;52.446;10.840;2023-03-24T04:42:33;3.15;;;1.85;;
31308;SDS011;17936;52.446;10.840;2023-03-24T04:45:02;3.17;;;1.85;;
31308;SDS011;17936;52.446;10.840;2023-03-24T04:47:30;3.83;;;2.10;;
31308;SDS011;17936;52.446;10.840;2023-03-24T04:50:06;3.47;;;1.88;;
31308;SDS011;17936;52.446;10.840;2023-03-24T04:52:35;3.03;;;1.92;;
31308;SDS011;17936;52.446;10.840;2023-03-24T04:55:02;3.00;;;1.52;;
31308;SDS011;17936;52.446;10.840;2023-03-24T04:57:51;3.50;;;2.30;;
31308;SDS011;17936;52.446;10.840;2023-03-24T05:00:17;3.88;;;2.25;;
31308;SDS011;17936;52.446;10.840;2023-03-24T05:02:43;3.50;;;2.35;;
31308;SDS011;17936;52.446;10.840;2023-03-24T05:05:09;3.75;;;2.33;;
31308;SDS011;17936;52.446;10.840;2023-03-24T05:07:35;4.80;;;2.20;;
31308;SDS011;17936;52.446;10.840;2023-03-24T05:10:01;4.82;;;2.70;;
31308;SDS011;17936;52.446;10.840;2023-03-24T05:12:26;3.15;;;1.80;;
31308;SDS011;17936;52.446;10.840;2023-03-24T05:14:52;4.43;;;2.20;;
31308;SDS011;17936;52.446;10.840;2023-03-24T05:17:17;5.68;;;2.40;;
31308;SDS011;17936;52.446;10.840;2023-03-24T05:19:42;2.75;;;2.00;;
31308;SDS011;17936;52.446;10.840;2023-03-24T05:22:08;4.40;;;2.17;;
31308;SDS011;17936;52.446;10.840;2023-03-24T05:24:34;3.92;;;2.25;;
31308;SDS011;17936;52.446;10.840;2023-03-24T05:26:59;3.40;;;2.47;;
31308;SDS011;17936;52.446;10.840;2023-03-24T05:29:25;5.55;;;2.40;;
31308;SDS011;17936;52.446;10.840;2023-03-24T05:31:50;4.28;;;2.28;;
31308;SDS011;17936;52.446;10.840;2023-03-24T05:34:16;4.97;;;2.28;;
31308;SDS011;17936;52.446;10.840;2023-03-24T05:36:41;3.88;;;2.30;;
31308;SDS011;17936;52.446;10.840;2023-03-24T05:39:07;4.97;;;2.03;;
31308;SDS011;17936;52.446;10.840;2023-03-24T05:41:32;3.90;;;2.10;;
31308;SDS011;17936;52.446;10.840;2023-03-24T05:43:58;3.45;;;2.40;;
31308;SDS011;17936;52.446;10.840;2023-03-24T05:46:24;3.90;;;2.10;;
31308;SDS011;17936;52.446;10.840;2023-03-24T05:48:49;4.05;;;1.90;;
31308;SDS011;17936;52.446;10.840;2023-03-24T05:51:15;3.88;;;2.40;;
31308;SDS011;17936;52.446;10.840;2023-03-24T05:53:40;4.80;;;2.00;;
31308;SDS011;17936;52.446;10.840;2023-03-24T05:56:06;5.05;;;2.22;;
31308;SDS011;17936;52.446;10.840;2023-03-24T05:58:35;4.82;;;2.20;;
31308;SDS011;17936;52.446;10.840;2023-03-24T06:01:07;5.18;;;2.38;;
31308;SDS011;17936;52.446;10.840;2023-03-24T06:03:34;4.38;;;2.17;;
31308;SDS011;17936;52.446;10.840;2023-03-24T06:06:03;3.28;;;2.10;;
31308;SDS011;17936;52.446;10.840;2023-03-24T06:08:32;5.00;;;2.10;;
31308;SDS011;17936;52.446;10.840;2023-03-24T06:10:59;3.80;;;2.63;;
31308;SDS011;17936;52.446;10.840;2023-03-24T06:13:27;3.25;;;2.42;;
31308;SDS011;17936;52.446;10.840;2023-03-24T06:15:53;4.85;;;2.70;;
31308;SDS011;17936;52.446;10.840;2023-03-24T06:18:22;3.50;;;2.20;;
31308;SDS011;17936;52.446;10.840;2023-03-24T06:20:50;4.78;;;2.70;;
31308;SDS011;17936;52.446;10.840;2023-03-24T06:23:20;4.18;;;2.45;;
31308;SDS011;17936;52.446;10.840;2023-03-24T06:25:47;8.13;;;2.70;;
31308;SDS011;17936;52.446;10.840;2023-03-24T06:28:14;4.65;;;2.63;;
31308;SDS011;17936;52.446;10.840;2023-03-24T06:30:42;3.53;;;2.35;;
31308;SDS011;17936;52.446;10.840;2023-03-24T06:33:08;4.35;;;2.97;;
31308;SDS011;17936;52.446;10.840;2023-03-24T06:35:35;5.10;;;2.50;;
31308;SDS011;17936;52.446;10.840;2023-03-24T06:38:01;3.30;;;2.42;;
31308;SDS011;17936;52.446;10.840;2023-03-24T06:40:27;3.60;;;2.50;;
31308;SDS011;17936;52.446;10.840;2023-03-24T06:42:52;4.65;;;2.45;;
31308;SDS011;17936;52.446;10.840;2023-03-24T06:45:19;4.93;;;2.83;;
31308;SDS011;17936;52.446;10.840;2023-03-24T06:47:45;6.40;;;2.55;;
31308;SDS011;17936;52.446;10.840;2023-03-24T06:50:10;4.90;;;2.15;;
31308;SDS011;17936;52.446;10.840;2023-03-24T06:52:36;3.95;;;2.40;;
31308;SDS011;17936;52.446;10.840;2023-03-24T06:55:01;4.05;;;2.55;;
31308;SDS011;17936;52.446;10.840;2023-03-24T06:57:27;3.35;;;2.20;;
31308;SDS011;17936;52.446;10.840;2023-03-24T06:59:53;5.80;;;2.67;;
31308;SDS011;17936;52.446;10.840;2023-03-24T07:02:20;3.63;;;2.55;;
31308;SDS011;17936;52.446;10.840;2023-03-24T07:04:46;6.40;;;2.72;;
31308;SDS011;17936;52.446;10.840;2023-03-24T07:07:11;5.20;;;2.63;;
31308;SDS011;17936;52.446;10.840;2023-03-24T07:09:37;6.53;;;2.78;;
31308;SDS011;17936;52.446;10.840;2023-03-24T07:12:04;5.88;;;2.38;;
31308;SDS011;17936;52.446;10.840;2023-03-24T07:14:30;5.05;;;2.50;;
31308;SDS011;17936;52.446;10.840;2023-03-24T07:16:56;4.55;;;2.25;;
31308;SDS011;17936;52.446;10.840;2023-03-24T07:19:23;5.38;;;2.97;;
31308;SDS011;17936;52.446;10.840;2023-03-24T07:21:49;5.03;;;2.58;;
31308;SDS011;17936;52.446;10.840;2023-03-24T07:24:15;4.20;;;2.30;;
31308;SDS011;17936;52.446;10.840;2023-03-24T07:26:41;6.38;;;2.45;;
31308;SDS011;17936;52.446;10.840;2023-03-24T07:29:07;4.75;;;2.47;;
31308;SDS011;17936;52.446;10.840;2023-03-24T07:31:32;4.20;;;2.67;;
31308;SDS011;17936;52.446;10.840;2023-03-24T07:34:02;4.30;;;2.58;;
31308;SDS011;17936;52.446;10.840;2023-03-24T07:36:28;5.05;;;2.80;;
31308;SDS011;17936;52.446;10.840;2023-03-24T07:38:54;4.55;;;2.47;;
31308;SDS011;17936;52.446;10.840;2023-03-24T07:41:19;5.57;;;3.17;;
31308;SDS011;17936;52.446;10.840;2023-03-24T07:43:45;8.38;;;3.00;;
31308;SDS011;17936;52.446;10.840;2023-03-24T07:46:10;5.80;;;3.17;;
31308;SDS011;17936;52.446;10.840;2023-03-24T07:48:36;5.50;;;3.17;;
31308;SDS011;17936;52.446;10.840;2023-03-24T07:51:01;6.57;;;3.70;;
31308;SDS011;17936;52.446;10.840;2023-03-24T07:53:27;8.00;;;3.40;;
31308;SDS011;17936;52.446;10.840;2023-03-24T07:55:52;5.97;;;3.25;;
31308;SDS011;17936;52.446;10.840;2023-03-24T07:58:18;5.10;;;2.80;;
31308;SDS011;17936;52.446;10.840;2023-03-24T08:00:43;3.88;;;2.90;;
31308;SDS011;17936;52.446;10.840;2023-03-24T08:03:12;3.63;;;2.60;;
31308;SDS011;17936;52.446;10.840;2023-03-24T08:05:39;4.65;;;2.35;;
31308;SDS011;17936;52.446;10.840;2023-03-24T08:08:05;5.18;;;2.30;;
31308;SDS011;17936;52.446;10.840;2023-03-24T08:10:31;4.75;;;2.95;;
31308;SDS011;17936;52.446;10.840;2023-03-24T08:12:57;5.80;;;2.40;;
31308;SDS011;17936;52.446;10.840;2023-03-24T08:15:24;4.15;;;2.22;;
31308;SDS011;17936;52.446;10.840;2023-03-24T08:17:51;4.75;;;2.08;;
31308;SDS011;17936;52.446;10.840;2023-03-24T08:20:17;3.53;;;1.98;;
31308;SDS011;17936;52.446;10.840;2023-03-24T08:22:46;5.10;;;2.10;;
31308;SDS011;17936;52.446;10.840;2023-03-24T08:25:14;4.82;;;1.85;;
31308;SDS011;17936;52.446;10.840;2023-03-24T08:27:41;3.28;;;1.90;;
31308;SDS011;17936;52.446;10.840;2023-03-24T08:30:09;3.22;;;1.65;;
31308;SDS011;17936;52.446;10.840;2023-03-24T08:32:41;4.72;;;2.40;;
31308;SDS011;17936;52.446;10.840;2023-03-24T08:35:09;5.55;;;2.67;;
31308;SDS011;17936;52.446;10.840;2023-03-24T08:37:38;8.27;;;2.38;;
31308;SDS011;17936;52.446;10.840;2023-03-24T08:40:05;3.50;;;1.45;;
31308;SDS011;17936;52.446;10.840;2023-03-24T08:42:31;4.05;;;1.50;;
31308;SDS011;17936;52.446;10.840;2023-03-24T08:44:57;8.57;;;2.92;;
31308;SDS011;17936;52.446;10.840;2023-03-24T08:47:22;5.32;;;2.28;;
31308;SDS011;17936;52.446;10.840;2023-03-24T08:49:48;3.08;;;1.58;;
31308;SDS011;17936;52.446;10.840;2023-03-24T08:52:13;2.03;;;1.20;;
31308;SDS011;17936;52.446;10.840;2023-03-24T08:54:40;6.32;;;2.58;;
31308;SDS011;17936;52.446;10.840;2023-03-24T08:57:05;19.58;;;5.93;;
31308;SDS011;17936;52.446;10.840;2023-03-24T08:59:31;27.65;;;5.72;;
31308;SDS011;17936;52.446;10.840;2023-03-24T09:01:56;6.30;;;2.05;;
31308;SDS011;17936;52.446;10.840;2023-03-24T09:04:22;5.80;;;1.70;;
31308;SDS011;17936;52.446;10.840;2023-03-24T09:06:47;4.50;;;1.60;;
31308;SDS011;17936;52.446;10.840;2023-03-24T09:09:13;3.25;;;1.00;;
31308;SDS011;17936;52.446;10.840;2023-03-24T09:11:39;1.58;;;1.00;;
31308;SDS011;17936;52.446;10.840;2023-03-24T09:14:05;4.32;;;0.93;;
31308;SDS011;17936;52.446;10.840;2023-03-24T09:16:31;3.35;;;1.00;;
31308;SDS011;17936;52.446;10.840;2023-03-24T09:18:56;2.92;;;0.95;;
31308;SDS011;17936;52.446;10.840;2023-03-24T09:21:21;1.95;;;0.60;;
31308;SDS011;17936;52.446;10.840;2023-03-24T09:23:47;1.40;;;0.75;;
31308;SDS011;17936;52.446;10.840;2023-03-24T09:26:13;2.47;;;0.93;;
31308;SDS011;17936;52.446;10.840;2023-03-24T09:28:38;1.73;;;0.90;;
31308;SDS011;17936;52.446;10.840;2023-03-24T09:31:04;2.45;;;0.93;;
31308;SDS011;17936;52.446;10.840;2023-03-24T09:33:30;2.90;;;0.90;;
31308;SDS011;17936;52.446;10.840;2023-03-24T09:35:56;2.20;;;0.82;;
31308;SDS011;17936;52.446;10.840;2023-03-24T09:38:24;1.55;;;0.70;;
31308;SDS011;17936;52.446;10.840;2023-03-24T09:40:54;2.38;;;0.82;;
31308;SDS011;17936;52.446;10.840;2023-03-24T09:43:33;1.75;;;0.90;;
31308;SDS011;17936;52.446;10.840;2023-03-24T09:46:03;3.50;;;0.65;;
31308;SDS011;17936;52.446;10.840;2023-03-24T09:48:43;1.38;;;0.70;;
31308;SDS011;17936;52.446;10.840;2023-03-24T09:53:50;1.65;;;0.75;;
31308;SDS011;17936;52.446;10.840;2023-03-24T09:56:31;2.00;;;0.90;;
31308;SDS011;17936;52.446;10.840;2023-03-24T10:01:25;2.60;;;0.82;;
31308;SDS011;17936;52.446;10.840;2023-03-24T10:03:51;11.35;;;1.08;;
31308;SDS011;17936;52.446;10.840;2023-03-24T10:06:24;2.63;;;0.90;;
31308;SDS011;17936;52.446;10.840;2023-03-24T10:08:56;4.45;;;0.75;;
31308;SDS011;17936;52.446;10.840;2023-03-24T10:14:42;2.65;;;1.10;;
31308;SDS011;17936;52.446;10.840;2023-03-24T10:23:39;3.10;;;1.17;;
31308;SDS011;17936;52.446;10.840;2023-03-24T10:26:22;3.95;;;0.82;;
31308;SDS011;17936;52.446;10.840;2023-03-24T10:32:02;5.38;;;0.88;;
31308;SDS011;17936;52.446;10.840;2023-03-24T10:34:35;5.10;;;0.98;;
31308;SDS011;17936;52.446;10.840;2023-03-24T10:37:02;4.10;;;1.02;;
31308;SDS011;17936;52.446;10.840;2023-03-24T10:39:29;2.92;;;0.73;;
31308;SDS011;17936;52.446;10.840;2023-03-24T10:41:55;5.82;;;1.05;;
31308;SDS011;17936;52.446;10.840;2023-03-24T10:44:23;3.25;;;0.88;;
31308;SDS011;17936;52.446;10.840;2023-03-24T10:46:51;4.80;;;1.00;;
31308;SDS011;17936;52.446;10.840;2023-03-24T10:49:20;3.83;;;1.58;;
31308;SDS011;17936;52.446;10.840;2023-03-24T10:51:53;6.93;;;1.10;;
31308;SDS011;17936;52.446;10.840;2023-03-24T10:54:27;4.55;;;1.50;;
31308;SDS011;17936;52.446;10.840;2023-03-24T10:59:25;4.38;;;1.25;;
31308;SDS011;17936;52.446;10.840;2023-03-24T11:02:01;3.33;;;0.90;;
31308;SDS011;17936;52.446;10.840;2023-03-24T11:04:40;4.95;;;1.05;;
31308;SDS011;17936;52.446;10.840;2023-03-24T11:07:13;9.52;;;1.27;;
31308;SDS011;17936;52.446;10.840;2023-03-24T11:09:41;4.78;;;1.23;;
31308;SDS011;17936;52.446;10.840;2023-03-24T11:12:21;3.38;;;1.17;;
31308;SDS011;17936;52.446;10.840;2023-03-24T11:14:50;9.32;;;1.60;;
31308;SDS011;17936;52.446;10.840;2023-03-24T11:17:21;3.88;;;1.13;;
31308;SDS011;17936;52.446;10.840;2023-03-24T11:19:51;5.25;;;1.40;;
31308;SDS011;17936;52.446;10.840;2023-03-24T11:22:18;10.85;;;1.58;;
31308;SDS011;17936;52.446;10.840;2023-03-24T11:24:44;3.38;;;1.30;;
31308;SDS011;17936;52.446;10.840;2023-03-24T11:27:14;4.57;;;1.15;;
31308;SDS011;17936;52.446;10.840;2023-03-24T11:29:42;6.75;;;1.35;;
31308;SDS011;17936;52.446;10.840;2023-03-24T11:32:13;8.00;;;1.23;;
31308;SDS011;17936;52.446;10.840;2023-03-24T11:34:58;5.32;;;1.50;;
31308;SDS011;17936;52.446;10.840;2023-03-24T11:37:30;4.47;;;1.33;;
31308;SDS011;17936;52.446;10.840;2023-03-24T11:42:46;3.95;;;1.17;;
31308;SDS011;17936;52.446;10.840;2023-03-24T11:45:25;5.20;;;1.33;;
31308;SDS011;17936;52.446;10.840;2023-03-24T11:47:57;4.53;;;1.60;;
31308;SDS011;17936;52.446;10.840;2023-03-24T11:50:24;5.80;;;1.48;;
31308;SDS011;17936;52.446;10.840;2023-03-24T12:09:44;8.02;;;1.27;;
31308;SDS011;17936;52.446;10.840;2023-03-24T12:12:29;4.97;;;1.25;;
31308;SDS011;17936;52.446;10.840;2023-03-24T12:15:12;4.45;;;1.30;;
31308;SDS011;17936;52.446;10.840;2023-03-24T12:17:49;7.13;;;1.23;;
31308;SDS011;17936;52.446;10.840;2023-03-24T12:20:45;5.38;;;1.33;;
31308;SDS011;17936;52.446;10.840;2023-03-24T12:23:23;6.38;;;1.65;;
31308;SDS011;17936;52.446;10.840;2023-03-24T12:26:12;3.65;;;1.25;;
31308;SDS011;17936;52.446;10.840;2023-03-24T12:28:47;6.78;;;1.67;;
31308;SDS011;17936;52.446;10.840;2023-03-24T12:36:58;6.57;;;1.23;;
31308;SDS011;17936;52.446;10.840;2023-03-24T12:39:41;7.80;;;1.52;;
31308;SDS011;17936;52.446;10.840;2023-03-24T12:42:23;5.32;;;1.50;;
31308;SDS011;17936;52.446;10.840;2023-03-24T12:50:45;6.05;;;1.40;;
31308;SDS011;17936;52.446;10.840;2023-03-24T12:58:52;6.28;;;1.35;;
31308;SDS011;17936;52.446;10.840;2023-03-24T13:01:34;10.38;;;1.50;;
31308;SDS011;17936;52.446;10.840;2023-03-24T13:04:09;13.25;;;1.45;;
31308;SDS011;17936;52.446;10.840;2023-03-24T13:06:43;5.20;;;1.35;;
31308;SDS011;17936;52.446;10.840;2023-03-24T13:09:22;7.38;;;1.60;;
31308;SDS011;17936;52.446;10.840;2023-03-24T13:12:23;3.97;;;1.10;;
31308;SDS011;17936;52.446;10.840;2023-03-24T13:15:15;7.90;;;1.25;;
31308;SDS011;17936;52.446;10.840;2023-03-24T13:20:38;6.38;;;1.02;;
31308;SDS011;17936;52.446;10.840;2023-03-24T13:26:05;9.45;;;1.23;;
31308;SDS011;17936;52.446;10.840;2023-03-24T13:28:36;4.47;;;0.82;;
31308;SDS011;17936;52.446;10.840;2023-03-24T13:31:07;5.88;;;1.15;;
31308;SDS011;17936;52.446;10.840;2023-03-24T13:33:35;9.57;;;1.20;;
31308;SDS011;17936;52.446;10.840;2023-03-24T13:36:46;6.95;;;1.40;;
31308;SDS011;17936;52.446;10.840;2023-03-24T13:38:52;8.90;;;1.60;;
31308;SDS011;17936;52.446;10.840;2023-03-24T13:41:22;3.65;;;1.00;;
31308;SDS011;17936;52.446;10.840;2023-03-24T13:44:00;5.38;;;1.35;;
31308;SDS011;17936;52.446;10.840;2023-03-24T13:46:27;6.95;;;1.80;;
31308;SDS011;17936;52.446;10.840;2023-03-24T13:48:54;6.50;;;1.20;;
31308;SDS011;17936;52.446;10.840;2023-03-24T13:51:31;5.18;;;1.15;;
31308;SDS011;17936;52.446;10.840;2023-03-24T13:54:02;5.82;;;1.30;;
31308;SDS011;17936;52.446;10.840;2023-03-24T13:56:31;6.35;;;1.42;;
31308;SDS011;17936;52.446;10.840;2023-03-24T14:01:37;5.60;;;1.45;;
31308;SDS011;17936;52.446;10.840;2023-03-24T14:06:56;3.85;;;1.20;;
31308;SDS011;17936;52.446;10.840;2023-03-24T14:14:22;6.78;;;1.40;;
31308;SDS011;17936;52.446;10.840;2023-03-24T14:19:42;6.88;;;1.35;;
31308;SDS011;17936;52.446;10.840;2023-03-24T14:22:11;6.53;;;1.27;;
31308;SDS011;17936;52.446;10.840;2023-03-24T14:24:40;6.13;;;1.50;;
31308;SDS011;17936;52.446;10.840;2023-03-24T14:27:19;7.50;;;1.02;;
31308;SDS011;17936;52.446;10.840;2023-03-24T14:29:48;11.27;;;1.48;;
31308;SDS011;17936;52.446;10.840;2023-03-24T14:32:16;4.30;;;1.20;;
31308;SDS011;17936;52.446;10.840;2023-03-24T14:34:50;7.18;;;1.52;;
31308;SDS011;17936;52.446;10.840;2023-03-24T14:37:22;5.60;;;1.20;;
31308;SDS011;17936;52.446;10.840;2023-03-24T14:39:49;5.22;;;1.17;;
31308;SDS011;17936;52.446;10.840;2023-03-24T14:45:05;3.20;;;1.00;;
31308;SDS011;17936;52.446;10.840;2023-03-24T14:47:57;6.22;;;1.35;;
31308;SDS011;17936;52.446;10.840;2023-03-24T14:50:24;5.35;;;1.10;;
31308;SDS011;17936;52.446;10.840;2023-03-24T14:52:53;9.27;;;1.60;;
31308;SDS011;17936;52.446;10.840;2023-03-24T14:55:24;9.18;;;1.58;;
31308;SDS011;17936;52.446;10.840;2023-03-24T14:57:52;10.15;;;1.65;;
31308;SDS011;17936;52.446;10.840;2023-03-24T15:00:38;7.95;;;1.58;;
31308;SDS011;17936;52.446;10.840;2023-03-24T15:06:14;5.80;;;1.17;;
31308;SDS011;17936;52.446;10.840;2023-03-24T15:08:56;6.10;;;1.45;;
31308;SDS011;17936;52.446;10.840;2023-03-24T15:11:31;5.85;;;1.55;;
31308;SDS011;17936;52.446;10.840;2023-03-24T15:13:59;4.88;;;1.30;;
31308;SDS011;17936;52.446;10.840;2023-03-24T15:16:28;6.85;;;1.60;;
31308;SDS011;17936;52.446;10.840;2023-03-24T15:23:56;4.00;;;1.17;;
31308;SDS011;17936;52.446;10.840;2023-03-24T15:26:23;6.50;;;1.30;;
31308;SDS011;17936;52.446;10.840;2023-03-24T15:28:53;4.20;;;1.15;;
31308;SDS011;17936;52.446;10.840;2023-03-24T15:31:22;4.28;;;0.90;;
31308;SDS011;17936;52.446;10.840;2023-03-24T15:33:54;6.65;;;1.48;;
31308;SDS011;17936;52.446;10.840;2023-03-24T15:36:27;5.43;;;1.00;;
31308;SDS011;17936;52.446;10.840;2023-03-24T15:38:59;4.45;;;1.20;;
31308;SDS011;17936;52.446;10.840;2023-03-24T15:41:25;6.03;;;0.77;;
31308;SDS011;17936;52.446;10.840;2023-03-24T15:43:52;5.47;;;0.95;;
31308;SDS011;17936;52.446;10.840;2023-03-24T15:46:25;4.68;;;1.73;;
31308;SDS011;17936;52.446;10.840;2023-03-24T15:48:52;5.18;;;1.17;;
31308;SDS011;17936;52.446;10.840;2023-03-24T15:51:44;5.60;;;0.90;;
31308;SDS011;17936;52.446;10.840;2023-03-24T15:54:20;2.55;;;0.75;;
31308;SDS011;17936;52.446;10.840;2023-03-24T15:57:00;3.17;;;0.90;;
31308;SDS011;17936;52.446;10.840;2023-03-24T15:59:31;3.10;;;0.80;;
31308;SDS011;17936;52.446;10.840;2023-03-24T16:02:02;6.78;;;1.40;;
31308;SDS011;17936;52.446;10.840;2023-03-24T16:04:31;5.18;;;0.90;;
31308;SDS011;17936;52.446;10.840;2023-03-24T16:06:56;6.18;;;1.20;;
31308;SDS011;17936;52.446;10.840;2023-03-24T16:09:22;4.70;;;1.15;;
31308;SDS011;17936;52.446;10.840;2023-03-24T16:11:51;6.28;;;1.35;;
31308;SDS011;17936;52.446;10.840;2023-03-24T16:14:19;6.07;;;1.30;;
31308;SDS011;17936;52.446;10.840;2023-03-24T16:16:47;4.05;;;1.10;;
31308;SDS011;17936;52.446;10.840;2023-03-24T16:19:12;2.92;;;0.98;;
31308;SDS011;17936;52.446;10.840;2023-03-24T16:21:38;2.28;;;0.52;;
31308;SDS011;17936;52.446;10.840;2023-03-24T16:24:03;2.00;;;0.73;;
31308;SDS011;17936;52.446;10.840;2023-03-24T16:26:30;1.83;;;0.50;;
31308;SDS011;17936;52.446;10.840;2023-03-24T16:31:38;3.55;;;0.88;;
31308;SDS011;17936;52.446;10.840;2023-03-24T16:34:04;1.13;;;0.50;;
31308;SDS011;17936;52.446;10.840;2023-03-24T16:36:29;2.00;;;0.70;;
31308;SDS011;17936;52.446;10.840;2023-03-24T16:38:56;7.53;;;0.90;;
31308;SDS011;17936;52.446;10.840;2023-03-24T16:41:23;2.97;;;0.70;;
31308;SDS011;17936;52.446;10.840;2023-03-24T16:43:48;6.00;;;0.95;;
31308;SDS011;17936;52.446;10.840;2023-03-24T16:46:33;1.42;;;0.70;;
31308;SDS011;17936;52.446;10.840;2023-03-24T16:49:00;3.65;;;0.90;;
31308;SDS011;17936;52.446;10.840;2023-03-24T16:51:26;2.65;;;1.10;;
31308;SDS011;17936;52.446;10.840;2023-03-24T16:53:53;3.38;;;1.20;;
31308;SDS011;17936;52.446;10.840;2023-03-24T16:56:20;3.20;;;1.20;;
31308;SDS011;17936;52.446;10.840;2023-03-24T16:58:46;4.65;;;1.08;;
31308;SDS011;17936;52.446;10.840;2023-03-24T17:01:32;1.92;;;1.33;;